Time;durP1;ratioP1;P1;durP2;ratioP2;P2;SDS_P1;SDS_P2;PMS_P1;PMS_P2;Temp;Humidity;BMP_temperature;BMP_pressure;BME280_temperature;BME280_humidity;BME280_pressure;Samples;Min_cycle;Max_cycle;Signal;HPM_P1;HPM_P2
2023/03/26 07:35:34;;;;;;;4.88;1.60;;;;;;;;;;4574981;28;20519;-93
2023/03/26 07:38:23;;;;;;;3.92;1.85;;;;;;;;;;4994832;28;20068;-91
2023/03/26 07:41:00;;;;;;;3.95;2.00;;;;;;;;;;4978134;28;20033;-93
2023/03/26 07:43:45;;;;;;;6.07;2.50;;;;;;;;;;4996545;28;20041;-92
2023/03/26 07:46:16;;;;;;;4.47;2.08;;;;;;;;;;4999669;28;20042;-92
2023/03/26 07:48:56;;;;;;;3.88;1.85;;;;;;;;;;4990105;28;20041;-91
2023/03/26 07:51:22;;;;;;;3.10;1.90;;;;;;;;;;4997067;28;20493;-90
2023/03/26 07:53:49;;;;;;;6.47;1.90;;;;;;;;;;4990830;28;20022;-92
2023/03/26 07:56:44;;;;;;;3.28;2.10;;;;;;;;;;5002596;28;20025;-92
2023/03/26 07:59:14;;;;;;;6.55;2.22;;;;;;;;;;4991141;28;20041;-92
2023/03/26 08:01:40;;;;;;;3.55;2.40;;;;;;;;;;5000909;28;20021;-92
2023/03/26 08:04:07;;;;;;;4.60;2.20;;;;;;;;;;5001681;28;20021;-92
2023/03/26 08:06:35;;;;;;;6.35;2.10;;;;;;;;;;5002852;28;20029;-93
2023/03/26 08:09:12;;;;;;;4.72;2.03;;;;;;;;;;4995089;28;20392;-92
2023/03/26 08:11:41;;;;;;;3.25;1.98;;;;;;;;;;4999396;28;20092;-92
2023/03/26 08:14:13;;;;;;;3.75;2.03;;;;;;;;;;5000900;28;20112;-93
2023/03/26 08:16:47;;;;;;;4.53;2.00;;;;;;;;;;5000579;28;20046;-95
2023/03/26 08:19:32;;;;;;;5.78;2.10;;;;;;;;;;5002078;28;20023;-95
2023/03/26 08:22:02;;;;;;;4.43;2.10;;;;;;;;;;4990286;28;20559;-94
2023/03/26 08:24:38;;;;;;;7.65;1.98;;;;;;;;;;4998308;28;20529;-94
2023/03/26 08:27:07;;;;;;;4.63;1.80;;;;;;;;;;4998238;28;20069;-95
2023/03/26 08:29:43;;;;;;;6.10;2.00;;;;;;;;;;5002297;28;20048;-94
2023/03/26 08:32:13;;;;;;;2.88;1.48;;;;;;;;;;4995151;28;20113;-95
2023/03/26 08:34:39;;;;;;;4.43;1.85;;;;;;;;;;5000774;28;20052;-94
2023/03/26 08:37:06;;;;;;;2.92;1.88;;;;;;;;;;5000920;28;20048;-92
2023/03/26 08:39:33;;;;;;;4.03;1.85;;;;;;;;;;4992548;28;20021;-95
2023/03/26 08:42:10;;;;;;;5.32;2.20;;;;;;;;;;4997083;28;20121;-94
2023/03/26 08:44:46;;;;;;;6.47;1.88;;;;;;;;;;5002415;28;20029;-96
2023/03/26 08:47:21;;;;;;;7.45;2.80;;;;;;;;;;5010369;28;20030;-94
2023/03/26 08:50:07;;;;;;;3.88;2.92;;;;;;;;;;5001235;28;20687;-96
2023/03/26 08:52:33;;;;;;;10.00;4.20;;;;;;;;;;4997571;28;20401;-96
2023/03/26 08:55:05;;;;;;;10.55;4.80;;;;;;;;;;5001313;28;20048;-94
2023/03/26 08:57:43;;;;;;;9.13;5.97;;;;;;;;;;4996916;28;20022;-96
2023/03/26 09:00:23;;;;;;;9.00;6.10;;;;;;;;;;4998681;28;20222;-96
2023/03/26 09:03:01;;;;;;;8.90;5.10;;;;;;;;;;4998701;28;20028;-95
2023/03/26 09:05:39;;;;;;;8.18;4.90;;;;;;;;;;4998637;28;20062;-95
2023/03/26 09:08:25;;;;;;;11.05;3.90;;;;;;;;;;5007276;28;20030;-96
2023/03/26 09:10:57;;;;;;;7.82;3.67;;;;;;;;;;5018771;28;20030;-96
2023/03/26 09:13:27;;;;;;;5.25;2.92;;;;;;;;;;5015157;28;20025;-96
2023/03/26 09:16:04;;;;;;;7.20;2.65;;;;;;;;;;5073600;22;20112;-78
2023/03/26 09:18:43;;;;;;;7.90;3.45;;;;;;;;;;5015367;28;20044;-78
2023/03/26 09:21:17;;;;;;;5.70;2.88;;;;;;;;;;5034111;28;20064;-79
2023/03/26 09:23:43;;;;;;;5.90;2.53;;;;;;;;;;5021346;28;20541;-78
2023/03/26 09:26:26;;;;;;;4.88;2.92;;;;;;;;;;5022964;28;20029;-78
2023/03/26 09:29:11;;;;;;;8.88;3.25;;;;;;;;;;5013435;28;20620;-77
2023/03/26 09:31:56;;;;;;;7.20;3.08;;;;;;;;;;5024375;28;20473;-78
2023/03/26 09:34:41;;;;;;;4.60;2.70;;;;;;;;;;5035692;28;20063;-78
2023/03/26 09:37:17;;;;;;;4.78;2.50;;;;;;;;;;5007867;28;20026;-78
2023/03/26 09:39:43;;;;;;;6.55;2.63;;;;;;;;;;5024855;28;20557;-78
2023/03/26 09:42:16;;;;;;;7.53;3.20;;;;;;;;;;5024687;28;20029;-78
2023/03/26 09:44:56;;;;;;;5.72;2.67;;;;;;;;;;5022715;28;20017;-78
2023/03/26 09:47:30;;;;;;;4.95;3.00;;;;;;;;;;5023935;28;20084;-78
2023/03/26 09:50:20;;;;;;;6.10;3.40;;;;;;;;;;5031591;28;20037;-78
2023/03/26 09:52:49;;;;;;;5.13;3.00;;;;;;;;;;5013079;28;20057;-78
2023/03/26 09:55:32;;;;;;;5.28;2.97;;;;;;;;;;5038962;28;20084;-78
2023/03/26 09:58:07;;;;;;;6.45;2.47;;;;;;;;;;5019644;28;20120;-78
2023/03/26 10:00:46;;;;;;;6.05;2.25;;;;;;;;;;5023320;28;20034;-78
2023/03/26 10:03:31;;;;;;;6.95;2.47;;;;;;;;;;5020594;28;20529;-78
2023/03/26 10:06:02;;;;;;;5.80;2.58;;;;;;;;;;5022979;28;20117;-78
2023/03/26 10:08:40;;;;;;;5.05;2.10;;;;;;;;;;5038119;28;20524;-78
2023/03/26 10:11:12;;;;;;;4.93;2.63;;;;;;;;;;5040069;28;20550;-78
2023/03/26 10:13:58;;;;;;;3.63;1.83;;;;;;;;;;5036764;28;20033;-78
2023/03/26 10:16:30;;;;;;;6.55;2.40;;;;;;;;;;5038848;28;20045;-78
2023/03/26 10:18:56;;;;;;;;;;;;;;;;;;5042422;28;20116;-78
2023/03/26 10:21:41;;;;;;;8.48;2.70;;;;;;;;;;5043045;28;19934;-78
2023/03/26 10:24:13;;;;;;;6.55;2.60;;;;;;;;;;5041458;28;20201;-78
2023/03/26 10:26:46;;;;;;;7.63;2.38;;;;;;;;;;5043495;28;20021;-77
2023/03/26 10:29:22;;;;;;;6.05;2.92;;;;;;;;;;5039503;28;20055;-78
2023/03/26 10:32:05;;;;;;;5.43;2.40;;;;;;;;;;5042568;28;20055;-77
2023/03/26 10:34:50;;;;;;;7.53;2.65;;;;;;;;;;5036103;28;20034;-78
2023/03/26 10:37:33;;;;;;;5.10;2.53;;;;;;;;;;5041042;28;20028;-78
2023/03/26 10:40:09;;;;;;;4.95;2.33;;;;;;;;;;5037926;28;20036;-77
2023/03/26 10:42:53;;;;;;;5.97;2.30;;;;;;;;;;5041732;28;20040;-78
2023/03/26 10:45:26;;;;;;;5.07;2.40;;;;;;;;;;5044414;28;20021;-78
2023/03/26 10:47:52;;;;;;;5.00;2.25;;;;;;;;;;5042667;28;20188;-78
2023/03/26 10:50:18;;;;;;;5.05;2.60;;;;;;;;;;5042208;28;20080;-76
2023/03/26 10:52:57;;;;;;;3.92;2.33;;;;;;;;;;5041536;28;20028;-76
2023/03/26 10:55:30;;;;;;;10.63;3.08;;;;;;;;;;5047489;28;20021;-76
2023/03/26 10:58:03;;;;;;;8.45;2.60;;;;;;;;;;5040330;28;21781;-77
2023/03/26 11:00:30;;;;;;;5.63;2.33;;;;;;;;;;5035374;28;20072;-76
2023/03/26 11:03:05;;;;;;;4.35;2.80;;;;;;;;;;5039234;28;20083;-77
2023/03/26 11:05:31;;;;;;;5.82;2.58;;;;;;;;;;5038661;28;20072;-76
2023/03/26 11:08:06;;;;;;;5.07;2.28;;;;;;;;;;5039916;28;20021;-77
2023/03/26 11:10:42;;;;;;;4.38;2.33;;;;;;;;;;5035799;28;20369;-77
2023/03/26 11:13:14;;;;;;;5.78;2.70;;;;;;;;;;5043092;28;20385;-77
2023/03/26 11:15:47;;;;;;;4.53;2.55;;;;;;;;;;5040670;28;20085;-76
2023/03/26 11:18:23;;;;;;;5.80;2.40;;;;;;;;;;5042203;28;20025;-78
2023/03/26 11:20:49;;;;;;;6.97;2.40;;;;;;;;;;5046922;28;20606;-79
2023/03/26 11:23:34;;;;;;;4.38;2.20;;;;;;;;;;5034790;28;20027;-79
2023/03/26 11:26:13;;;;;;;3.90;2.35;;;;;;;;;;5037733;28;20041;-79
2023/03/26 11:29:03;;;;;;;6.07;2.35;;;;;;;;;;5038676;28;21306;-78
2023/03/26 11:31:39;;;;;;;4.38;2.95;;;;;;;;;;5022319;28;20126;-76
2023/03/26 11:34:13;;;;;;;5.68;2.67;;;;;;;;;;5038691;28;20064;-79
2023/03/26 11:36:42;;;;;;;7.82;3.75;;;;;;;;;;5042420;28;20041;-79
2023/03/26 11:39:14;;;;;;;9.93;2.70;;;;;;;;;;5046487;28;20638;-79
2023/03/26 11:41:40;;;;;;;6.82;2.72;;;;;;;;;;5041792;28;20457;-79
2023/03/26 11:44:09;;;;;;;3.95;2.50;;;;;;;;;;5043013;28;20029;-78
2023/03/26 11:46:38;;;;;;;6.80;2.60;;;;;;;;;;5045687;28;20029;-79
2023/03/26 11:49:09;;;;;;;4.80;3.10;;;;;;;;;;5041181;28;20124;-79
2023/03/26 11:51:36;;;;;;;8.77;2.97;;;;;;;;;;5041694;28;20041;-78
2023/03/26 11:54:03;;;;;;;5.07;2.83;;;;;;;;;;5040218;28;20021;-78
2023/03/26 11:56:40;;;;;;;5.85;2.63;;;;;;;;;;5042318;28;20021;-78
2023/03/26 11:59:10;;;;;;;6.00;3.03;;;;;;;;;;5040604;28;20038;-76
2023/03/26 12:01:51;;;;;;;5.57;2.65;;;;;;;;;;5036502;28;20496;-78
2023/03/26 12:04:26;;;;;;;10.37;2.90;;;;;;;;;;5044664;28;20480;-78
2023/03/26 12:06:58;;;;;;;5.55;2.88;;;;;;;;;;5044434;28;20795;-76
2023/03/26 12:09:24;;;;;;;;;;;;;;;;;;5043619;28;20105;-77
2023/03/26 12:11:53;;;;;;;6.82;3.05;;;;;;;;;;5038614;28;19916;-77
2023/03/26 12:14:25;;;;;;;5.15;2.40;;;;;;;;;;5043944;28;20392;-77
2023/03/26 12:17:00;;;;;;;7.45;2.72;;;;;;;;;;5037035;28;20424;-77
2023/03/26 12:19:27;;;;;;;4.40;2.47;;;;;;;;;;5043333;28;20061;-77
2023/03/26 12:21:54;;;;;;;5.05;2.47;;;;;;;;;;5046119;28;20101;-77
2023/03/26 12:24:34;;;;;;;5.25;2.50;;;;;;;;;;5048582;28;20035;-77
2023/03/26 12:27:21;;;;;;;4.90;3.00;;;;;;;;;;5040962;28;20042;-77
2023/03/26 12:29:53;;;;;;;4.85;2.83;;;;;;;;;;5040436;28;20102;-77
2023/03/26 12:32:20;;;;;;;5.35;2.65;;;;;;;;;;5045816;28;20392;-77
2023/03/26 12:34:47;;;;;;;7.68;3.30;;;;;;;;;;5044147;28;20166;-77
2023/03/26 12:37:32;;;;;;;7.43;3.28;;;;;;;;;;5047941;28;20052;-77
2023/03/26 12:40:10;;;;;;;6.50;2.97;;;;;;;;;;5044619;28;20040;-77
2023/03/26 12:42:40;;;;;;;9.73;3.33;;;;;;;;;;5044893;28;20056;-77
2023/03/26 12:45:12;;;;;;;6.53;3.13;;;;;;;;;;5049837;28;20033;-77
2023/03/26 12:47:38;;;;;;;6.22;2.95;;;;;;;;;;5034966;28;20028;-77
2023/03/26 12:50:05;;;;;;;7.70;3.30;;;;;;;;;;5044759;28;20036;-77
2023/03/26 12:52:56;;;;;;;7.00;2.90;;;;;;;;;;5023670;28;20037;-77
2023/03/26 12:55:41;;;;;;;5.47;3.45;;;;;;;;;;5041338;28;20116;-77
2023/03/26 12:58:10;;;;;;;12.00;3.70;;;;;;;;;;5038006;28;20033;-77
2023/03/26 13:00:45;;;;;;;7.43;3.17;;;;;;;;;;5041821;28;20029;-77
2023/03/26 13:03:12;;;;;;;5.45;3.08;;;;;;;;;;5043274;28;20024;-77
2023/03/26 13:05:44;;;;;;;6.40;3.00;;;;;;;;;;5047686;28;20067;-77
2023/03/26 13:08:13;;;;;;;7.72;2.63;;;;;;;;;;5046808;28;20505;-77
2023/03/26 13:11:01;;;;;;;5.50;2.63;;;;;;;;;;5051294;28;20041;-77
2023/03/26 13:13:55;;;;;;;10.57;3.03;;;;;;;;;;5049729;28;20056;-77
2023/03/26 13:16:40;;;;;;;9.75;2.65;;;;;;;;;;5025597;28;20106;-77
2023/03/26 13:19:15;;;;;;;6.05;2.70;;;;;;;;;;5049610;28;20025;-77
2023/03/26 13:21:55;;;;;;;7.10;2.70;;;;;;;;;;5046627;28;20025;-77
2023/03/26 13:24:34;;;;;;;3.83;2.13;;;;;;;;;;5041480;28;20104;-77
2023/03/26 13:27:09;;;;;;;4.88;2.70;;;;;;;;;;5045210;28;20567;-78
2023/03/26 13:29:58;;;;;;;7.25;2.83;;;;;;;;;;5040937;28;20645;-77
2023/03/26 13:32:42;;;;;;;5.25;2.50;;;;;;;;;;5047923;28;20614;-76
2023/03/26 13:35:26;;;;;;;6.63;3.15;;;;;;;;;;5046357;28;20025;-77
2023/03/26 13:37:59;;;;;;;8.82;2.88;;;;;;;;;;5045361;28;20025;-78
2023/03/26 13:40:44;;;;;;;7.15;3.00;;;;;;;;;;5043925;28;20097;-76
2023/03/26 13:43:22;;;;;;;7.63;2.55;;;;;;;;;;5047463;28;20047;-77
2023/03/26 13:45:49;;;;;;;7.20;2.60;;;;;;;;;;5043919;28;20021;-77
2023/03/26 13:48:21;;;;;;;8.30;2.83;;;;;;;;;;5041999;28;20083;-77
2023/03/26 13:50:47;;;;;;;;;;;;;;;;;;5039779;28;20057;-76
2023/03/26 13:53:25;;;;;;;6.97;2.67;;;;;;;;;;5042815;28;19917;-77
2023/03/26 13:55:54;;;;;;;6.38;2.72;;;;;;;;;;5042670;28;20719;-77
2023/03/26 13:58:38;;;;;;;9.68;3.13;;;;;;;;;;5043320;28;20784;-77
2023/03/26 14:01:15;;;;;;;7.18;2.88;;;;;;;;;;5046437;28;20029;-77
2023/03/26 14:03:47;;;;;;;5.47;3.28;;;;;;;;;;5042761;28;20433;-77
2023/03/26 14:06:34;;;;;;;10.18;3.40;;;;;;;;;;5042411;28;20029;-77
2023/03/26 14:09:03;;;;;;;8.57;2.88;;;;;;;;;;5039013;28;20033;-76
2023/03/26 14:11:41;;;;;;;5.85;3.45;;;;;;;;;;5038124;28;20040;-77
2023/03/26 14:14:13;;;;;;;7.40;3.13;;;;;;;;;;5042646;28;20025;-76
2023/03/26 14:16:43;;;;;;;7.43;2.85;;;;;;;;;;5040348;28;20049;-77
2023/03/26 14:19:18;;;;;;;6.72;2.75;;;;;;;;;;5040154;28;20021;-77
2023/03/26 14:22:20;;;;;;;4.95;2.50;;;;;;;;;;5040684;28;20508;-77
2023/03/26 14:25:07;;;;;;;6.35;3.05;;;;;;;;;;5002713;28;20038;-77
2023/03/26 14:27:54;;;;;;;7.70;2.63;;;;;;;;;;5037000;28;20036;-77
2023/03/26 14:30:32;;;;;;;6.30;2.65;;;;;;;;;;5037953;28;20128;-76
2023/03/26 14:33:11;;;;;;;6.88;2.65;;;;;;;;;;5040068;28;20025;-78
2023/03/26 14:35:46;;;;;;;5.10;2.72;;;;;;;;;;5043068;28;20166;-76
2023/03/26 14:38:13;;;;;;;5.15;2.38;;;;;;;;;;5037602;28;20098;-77
2023/03/26 14:40:47;;;;;;;4.85;2.10;;;;;;;;;;5042919;28;20049;-77
2023/03/26 14:43:16;;;;;;;5.25;2.20;;;;;;;;;;5041084;28;20812;-77
2023/03/26 14:45:49;;;;;;;5.85;2.63;;;;;;;;;;5041324;28;20741;-77
2023/03/26 14:48:41;;;;;;;5.00;2.47;;;;;;;;;;5040632;28;20384;-77
2023/03/26 14:51:26;;;;;;;6.18;2.42;;;;;;;;;;5022510;28;20041;-77
2023/03/26 14:53:55;;;;;;;4.55;1.90;;;;;;;;;;5033939;28;20592;-76
2023/03/26 14:56:24;;;;;;;4.38;2.20;;;;;;;;;;5042748;28;20440;-76
2023/03/26 14:59:09;;;;;;;3.35;2.33;;;;;;;;;;5046471;28;20112;-78
2023/03/26 15:01:54;;;;;;;8.30;2.70;;;;;;;;;;5035491;28;20035;-77
2023/03/26 15:04:39;;;;;;;3.88;2.05;;;;;;;;;;5034553;28;20074;-77
2023/03/26 15:07:24;;;;;;;6.32;2.42;;;;;;;;;;5039252;28;20041;-78
2023/03/26 15:10:09;;;;;;;5.35;2.30;;;;;;;;;;5040991;28;20373;-77
2023/03/26 15:12:47;;;;;;;5.75;2.33;;;;;;;;;;5040328;28;20036;-78
2023/03/26 15:15:13;;;;;;;5.50;2.20;;;;;;;;;;5041206;28;20041;-77
2023/03/26 15:18:01;;;;;;;6.53;2.92;;;;;;;;;;5041625;28;20021;-77
2023/03/26 15:20:36;;;;;;;4.15;2.08;;;;;;;;;;5043102;28;20159;-77
2023/03/26 15:23:05;;;;;;;4.30;2.38;;;;;;;;;;5040341;28;20091;-77
2023/03/26 15:25:45;;;;;;;4.65;2.42;;;;;;;;;;5036057;28;20079;-77
2023/03/26 15:28:28;;;;;;;5.07;2.60;;;;;;;;;;5042747;28;20030;-78
2023/03/26 15:31:08;;;;;;;4.97;2.47;;;;;;;;;;5038418;28;20068;-77
2023/03/26 15:33:50;;;;;;;7.18;2.67;;;;;;;;;;5041332;28;20440;-77
2023/03/26 15:36:38;;;;;;;3.33;2.22;;;;;;;;;;5043027;28;20064;-77
2023/03/26 15:39:10;;;;;;;4.22;2.33;;;;;;;;;;5028515;28;20075;-77
2023/03/26 15:41:42;;;;;;;5.53;2.70;;;;;;;;;;5034976;28;20032;-77
2023/03/26 15:44:09;;;;;;;5.68;2.35;;;;;;;;;;5042098;28;20056;-77
2023/03/26 15:46:38;;;;;;;3.78;2.58;;;;;;;;;;5044699;28;20024;-76
2023/03/26 15:49:13;;;;;;;4.53;2.78;;;;;;;;;;5038104;28;20028;-77
2023/03/26 15:51:44;;;;;;;5.28;2.30;;;;;;;;;;5038236;28;20094;-77
2023/03/26 15:54:37;;;;;;;4.75;2.75;;;;;;;;;;5040622;28;20029;-77
2023/03/26 15:57:08;;;;;;;7.25;2.60;;;;;;;;;;5026500;28;20072;-77
2023/03/26 15:59:46;;;;;;;7.45;2.90;;;;;;;;;;5038365;28;20028;-77
2023/03/26 16:02:18;;;;;;;4.72;2.63;;;;;;;;;;5037061;28;20136;-77
2023/03/26 16:04:47;;;;;;;;;;;;;;;;;;5039420;28;20517;-77
2023/03/26 16:07:37;;;;;;;5.38;2.67;;;;;;;;;;5046426;28;20036;-77
2023/03/26 16:10:07;;;;;;;5.57;3.22;;;;;;;;;;5028127;28;20037;-77
2023/03/26 16:12:36;;;;;;;9.32;3.50;;;;;;;;;;5036871;28;20023;-73
2023/03/26 16:15:10;;;;;;;15.80;3.50;;;;;;;;;;5042485;28;20051;-79
2023/03/26 16:18:06;;;;;;;11.70;3.42;;;;;;;;;;5037526;28;20045;-79
2023/03/26 16:20:49;;;;;;;7.65;2.85;;;;;;;;;;5040488;28;20033;-79
2023/03/26 16:23:37;;;;;;;15.50;3.53;;;;;;;;;;5038522;28;20397;-78
2023/03/26 16:26:09;;;;;;;6.55;3.35;;;;;;;;;;5036317;28;20148;-78
2023/03/26 16:28:48;;;;;;;11.07;3.13;;;;;;;;;;5041364;28;20915;-77
2023/03/26 16:31:14;;;;;;;4.95;3.25;;;;;;;;;;5030463;28;20695;-76
2023/03/26 16:33:58;;;;;;;6.70;2.90;;;;;;;;;;5020269;28;20686;-73
2023/03/26 16:36:35;;;;;;;7.47;2.88;;;;;;;;;;5037122;28;20025;-78
2023/03/26 16:39:02;;;;;;;6.13;2.85;;;;;;;;;;5037712;28;20056;-79
2023/03/26 16:41:29;;;;;;;4.53;2.53;;;;;;;;;;5038362;28;20376;-79
2023/03/26 16:43:58;;;;;;;6.03;2.83;;;;;;;;;;5034751;28;20021;-77
2023/03/26 16:46:31;;;;;;;7.90;2.88;;;;;;;;;;5037425;28;20524;-78
2023/03/26 16:49:12;;;;;;;5.40;2.85;;;;;;;;;;5037817;28;20124;-78
2023/03/26 16:51:39;;;;;;;5.18;2.90;;;;;;;;;;5033774;28;20560;-79
2023/03/26 16:54:16;;;;;;;4.35;2.85;;;;;;;;;;5035458;28;20128;-79
2023/03/26 16:56:48;;;;;;;6.63;2.67;;;;;;;;;;5041493;28;20051;-78
2023/03/26 16:59:31;;;;;;;4.35;2.85;;;;;;;;;;5037692;28;20033;-79
2023/03/26 17:02:03;;;;;;;3.38;2.40;;;;;;;;;;5047509;28;20037;-78
2023/03/26 17:04:30;;;;;;;5.03;2.88;;;;;;;;;;5035736;28;20033;-78
2023/03/26 17:07:02;;;;;;;4.43;2.55;;;;;;;;;;5043901;28;20033;-78
2023/03/26 17:09:33;;;;;;;7.10;2.55;;;;;;;;;;5036601;28;20460;-78
2023/03/26 17:12:03;;;;;;;3.75;2.33;;;;;;;;;;5037409;28;20037;-78
2023/03/26 17:14:48;;;;;;;5.20;2.88;;;;;;;;;;5042284;28;20060;-78
2023/03/26 17:17:35;;;;;;;3.33;2.60;;;;;;;;;;5040831;28;20480;-78
2023/03/26 17:20:19;;;;;;;5.57;2.70;;;;;;;;;;5034407;28;20036;-78
2023/03/26 17:22:46;;;;;;;4.45;2.40;;;;;;;;;;5038127;28;20571;-77
2023/03/26 17:25:21;;;;;;;5.40;2.42;;;;;;;;;;5044688;28;20024;-78
2023/03/26 17:27:48;;;;;;;5.00;2.30;;;;;;;;;;5036623;28;20069;-78
2023/03/26 17:30:18;;;;;;;4.20;2.58;;;;;;;;;;5034863;28;20030;-78
2023/03/26 17:33:04;;;;;;;6.60;2.40;;;;;;;;;;5039825;28;20032;-78
2023/03/26 17:35:37;;;;;;;4.03;2.50;;;;;;;;;;5036044;28;20028;-79
2023/03/26 17:38:06;;;;;;;5.10;2.50;;;;;;;;;;5037632;28;20033;-78
2023/03/26 17:40:51;;;;;;;5.32;3.35;;;;;;;;;;5040931;28;20025;-78
2023/03/26 17:43:39;;;;;;;3.25;2.33;;;;;;;;;;5034208;28;20025;-78
2023/03/26 17:46:24;;;;;;;5.63;2.28;;;;;;;;;;5037501;28;20033;-78
2023/03/26 17:49:16;;;;;;;5.28;2.33;;;;;;;;;;5034372;28;20029;-79
2023/03/26 17:51:56;;;;;;;6.53;1.98;;;;;;;;;;5021572;28;20836;-79
2023/03/26 17:54:29;;;;;;;3.22;2.25;;;;;;;;;;5039675;28;20541;-79
2023/03/26 17:57:02;;;;;;;5.55;2.45;;;;;;;;;;5042771;28;20656;-77
2023/03/26 18:06:00;;;;;;;;;;;;;;;;;;;;;
2023/03/26 18:14:36;;;;;;;3.40;2.45;;;;;;;;;;5034709;28;20028;-78
2023/03/26 18:17:03;;;;;;;3.85;2.30;;;;;;;;;;5039008;28;20735;-78
2023/03/26 18:19:30;;;;;;;3.10;1.92;;;;;;;;;;5040059;28;20079;-78
2023/03/26 18:22:04;;;;;;;3.38;1.95;;;;;;;;;;5039129;28;20037;-78
2023/03/26 18:24:38;;;;;;;4.60;2.25;;;;;;;;;;5042059;28;20572;-78
2023/03/26 18:27:13;;;;;;;7.25;2.92;;;;;;;;;;5044390;28;20025;-78
2023/03/26 18:29:43;;;;;;;4.82;2.10;;;;;;;;;;5039770;28;20594;-79
2023/03/26 18:32:18;;;;;;;2.53;1.70;;;;;;;;;;5043317;28;20055;-78
2023/03/26 18:34:51;;;;;;;3.42;2.10;;;;;;;;;;5041253;28;20108;-77
2023/03/26 18:37:21;;;;;;;4.97;2.22;;;;;;;;;;5038007;28;20036;-78
2023/03/26 18:40:14;;;;;;;3.90;2.42;;;;;;;;;;5037203;28;20772;-79
2023/03/26 18:42:42;;;;;;;3.83;2.33;;;;;;;;;;5044067;28;20742;-77
2023/03/26 18:45:29;;;;;;;4.80;2.30;;;;;;;;;;5039925;28;20018;-77
2023/03/26 18:48:00;;;;;;;3.65;2.42;;;;;;;;;;5040574;28;20025;-78
2023/03/26 18:50:34;;;;;;;6.60;2.63;;;;;;;;;;5037756;28;20033;-78
2023/03/26 18:56:26;;;;;;;3.53;2.08;;;;;;;;;;4984767;28;20049;-77
2023/03/26 18:58:56;;;;;;;2.58;2.05;;;;;;;;;;5047938;28;20028;-78
2023/03/26 19:01:23;;;;;;;3.60;2.20;;;;;;;;;;5020132;28;20088;-78
2023/03/26 19:03:49;;;;;;;4.57;2.42;;;;;;;;;;5036446;28;20032;-77
2023/03/26 19:06:16;;;;;;;3.08;2.22;;;;;;;;;;5045581;28;20126;-77
2023/03/26 19:08:44;;;;;;;2.30;1.83;;;;;;;;;;5049533;28;20033;-77
2023/03/26 19:11:11;;;;;;;4.80;2.10;;;;;;;;;;5040129;28;20031;-78
2023/03/26 19:13:41;;;;;;;3.17;2.00;;;;;;;;;;5045918;28;20128;-79
2023/03/26 19:16:32;;;;;;;2.45;1.70;;;;;;;;;;5032871;28;20053;-79
2023/03/26 19:18:58;;;;;;;2.63;1.67;;;;;;;;;;5021306;28;20125;-78
2023/03/26 19:21:25;;;;;;;3.55;2.00;;;;;;;;;;5021558;28;20029;-77
2023/03/26 19:23:51;;;;;;;3.10;1.95;;;;;;;;;;5036224;28;20104;-77
2023/03/26 19:26:18;;;;;;;2.00;1.63;;;;;;;;;;5044981;28;20515;-77
2023/03/26 19:28:53;;;;;;;2.95;1.90;;;;;;;;;;5042728;28;20029;-77
2023/03/26 19:31:31;;;;;;;2.17;1.73;;;;;;;;;;5042772;28;20045;-78
2023/03/26 19:33:59;;;;;;;3.03;1.65;;;;;;;;;;5039456;28;20439;-78
2023/03/26 19:36:29;;;;;;;2.70;1.65;;;;;;;;;;5043982;28;20028;-78
2023/03/26 19:39:01;;;;;;;2.15;1.52;;;;;;;;;;5038374;28;20036;-77
2023/03/26 19:41:37;;;;;;;3.95;1.65;;;;;;;;;;5038034;28;20136;-77
2023/03/26 19:44:22;;;;;;;2.60;1.80;;;;;;;;;;5041344;28;20020;-77
2023/03/26 19:46:48;;;;;;;2.92;1.33;;;;;;;;;;5044688;28;20335;-78
2023/03/26 19:49:24;;;;;;;3.83;1.67;;;;;;;;;;5032589;28;20148;-77
2023/03/26 19:51:52;;;;;;;3.15;1.58;;;;;;;;;;5018665;28;20094;-77
2023/03/26 19:54:18;;;;;;;2.85;1.52;;;;;;;;;;5041024;28;20036;-77
2023/03/26 19:56:45;;;;;;;4.38;1.75;;;;;;;;;;5038832;28;20130;-77
2023/03/26 19:59:13;;;;;;;1.73;1.20;;;;;;;;;;5022822;28;20066;-77
2023/03/26 20:01:39;;;;;;;3.50;1.38;;;;;;;;;;5043945;28;20047;-77
2023/03/26 20:04:06;;;;;;;4.13;1.35;;;;;;;;;;5036987;28;20083;-77
2023/03/26 20:06:40;;;;;;;1.60;1.33;;;;;;;;;;5045866;28;20030;-77
2023/03/26 20:09:07;;;;;;;2.40;1.42;;;;;;;;;;5035079;28;20048;-78
2023/03/26 20:11:36;;;;;;;1.70;1.20;;;;;;;;;;5038317;28;20036;-77
2023/03/26 20:14:25;;;;;;;3.08;1.75;;;;;;;;;;5041884;28;20021;-78
2023/03/26 20:16:51;;;;;;;1.90;1.20;;;;;;;;;;5035634;28;20049;-78
2023/03/26 20:19:19;;;;;;;4.60;1.27;;;;;;;;;;5037514;28;20033;-78
2023/03/26 20:21:45;;;;;;;1.95;1.30;;;;;;;;;;5040065;28;20075;-78
2023/03/26 20:24:16;;;;;;;2.10;1.50;;;;;;;;;;5040652;28;20028;-77
2023/03/26 20:26:42;;;;;;;1.83;1.50;;;;;;;;;;5039403;28;20028;-78
2023/03/26 20:29:10;;;;;;;2.80;1.42;;;;;;;;;;5037343;28;20028;-78
2023/03/26 20:31:37;;;;;;;2.70;1.33;;;;;;;;;;5035114;28;20041;-77
2023/03/26 20:34:17;;;;;;;2.17;1.40;;;;;;;;;;5037659;28;20110;-78
2023/03/26 20:36:44;;;;;;;3.33;1.55;;;;;;;;;;5038260;28;20021;-78
2023/03/26 20:39:11;;;;;;;2.58;1.48;;;;;;;;;;5042492;28;20032;-79
2023/03/26 20:41:55;;;;;;;1.73;1.30;;;;;;;;;;5040902;28;20488;-78
2023/03/26 20:44:31;;;;;;;2.33;1.30;;;;;;;;;;5037125;28;20032;-78
2023/03/26 20:46:58;;;;;;;2.90;1.27;;;;;;;;;;5044378;28;20032;-78
2023/03/26 20:49:28;;;;;;;1.90;1.30;;;;;;;;;;5039622;28;20051;-78
2023/03/26 20:52:04;;;;;;;;;;;;;;;;;;;;;
2023/03/26 20:54:34;;;;;;;2.10;1.40;;;;;;;;;;5031593;28;20026;-79
2023/03/26 20:57:03;;;;;;;2.47;1.50;;;;;;;;;;5041412;28;20085;-77
2023/03/26 20:59:34;;;;;;;2.55;1.30;;;;;;;;;;5030820;28;20753;-77
2023/03/26 21:02:01;;;;;;;2.00;1.50;;;;;;;;;;5036566;28;20036;-77
2023/03/26 21:04:27;;;;;;;1.42;1.20;;;;;;;;;;5032472;28;20441;-77
2023/03/26 21:07:01;;;;;;;2.60;1.25;;;;;;;;;;5039673;28;20018;-77
2023/03/26 21:09:33;;;;;;;2.83;1.52;;;;;;;;;;5037305;28;20029;-77
2023/03/26 21:12:06;;;;;;;2.65;1.42;;;;;;;;;;5040782;28;20044;-78
2023/03/26 21:14:33;;;;;;;3.30;1.30;;;;;;;;;;5034501;28;20062;-77
2023/03/26 21:16:59;;;;;;;2.85;1.58;;;;;;;;;;5037022;28;20148;-77
2023/03/26 21:19:29;;;;;;;2.63;1.40;;;;;;;;;;5037720;28;20791;-77
2023/03/26 21:22:01;;;;;;;2.55;1.40;;;;;;;;;;5042709;28;20146;-77
2023/03/26 21:24:29;;;;;;;3.03;1.27;;;;;;;;;;5037340;28;20021;-77
2023/03/26 21:26:55;;;;;;;4.18;1.40;;;;;;;;;;5043951;28;20017;-77
2023/03/26 21:29:21;;;;;;;3.55;1.60;;;;;;;;;;5039282;28;20029;-77
2023/03/26 21:31:48;;;;;;;3.22;1.33;;;;;;;;;;5036132;28;20061;-77
2023/03/26 21:34:18;;;;;;;3.15;1.55;;;;;;;;;;5042089;28;20025;-78
2023/03/26 21:36:45;;;;;;;4.68;1.50;;;;;;;;;;5043421;28;20060;-78
2023/03/26 21:39:17;;;;;;;4.97;1.65;;;;;;;;;;5040755;28;20021;-77
2023/03/26 21:41:43;;;;;;;5.70;2.22;;;;;;;;;;5043711;28;20029;-76
2023/03/26 21:44:09;;;;;;;2.70;1.65;;;;;;;;;;5041916;28;20021;-77
2023/03/26 21:46:36;;;;;;;5.15;1.60;;;;;;;;;;5045971;28;20017;-77
2023/03/26 21:49:02;;;;;;;2.53;1.58;;;;;;;;;;5039970;28;20035;-77
2023/03/26 21:51:29;;;;;;;4.25;1.80;;;;;;;;;;5038032;28;20025;-77
2023/03/26 21:53:55;;;;;;;2.03;1.60;;;;;;;;;;5035227;28;20040;-76
2023/03/26 21:56:36;;;;;;;3.50;2.10;;;;;;;;;;5044577;28;20029;-75
2023/03/26 21:59:07;;;;;;;1.80;1.50;;;;;;;;;;5040321;28;20029;-75
2023/03/26 22:01:39;;;;;;;4.80;1.67;;;;;;;;;;5039659;28;20069;-80
2023/03/26 22:04:11;;;;;;;3.97;2.05;;;;;;;;;;5041972;28;20382;-74
2023/03/26 22:06:37;;;;;;;4.80;1.90;;;;;;;;;;5039220;28;20111;-74
2023/03/26 22:09:04;;;;;;;2.47;1.50;;;;;;;;;;5042910;28;20036;-74
2023/03/26 22:11:30;;;;;;;2.55;1.42;;;;;;;;;;5039775;28;20029;-74
2023/03/26 22:13:56;;;;;;;3.88;1.60;;;;;;;;;;5044445;28;20037;-75
2023/03/26 22:16:25;;;;;;;4.03;1.58;;;;;;;;;;5039573;28;20079;-74
2023/03/26 22:18:52;;;;;;;3.10;1.90;;;;;;;;;;5038137;28;20409;-74
2023/03/26 22:21:19;;;;;;;5.88;1.92;;;;;;;;;;5039988;28;20072;-74
2023/03/26 22:23:51;;;;;;;5.03;1.77;;;;;;;;;;5018129;28;20088;-74
2023/03/26 22:26:17;;;;;;;4.80;1.92;;;;;;;;;;5041510;28;20029;-74
2023/03/26 22:28:44;;;;;;;3.00;1.60;;;;;;;;;;5033183;28;20486;-74
2023/03/26 22:31:10;;;;;;;2.42;1.70;;;;;;;;;;5042318;28;20049;-74
2023/03/26 22:33:41;;;;;;;4.18;1.90;;;;;;;;;;5034309;28;20803;-74
2023/03/26 22:36:08;;;;;;;3.10;1.50;;;;;;;;;;5035971;28;20138;-74
2023/03/26 22:38:35;;;;;;;5.93;2.47;;;;;;;;;;5043666;28;20017;-74
2023/03/26 22:41:01;;;;;;;3.03;1.60;;;;;;;;;;5041175;28;20058;-74
2023/03/26 22:43:27;;;;;;;4.50;1.92;;;;;;;;;;5039935;28;20548;-74
2023/03/26 22:45:54;;;;;;;3.65;1.70;;;;;;;;;;5038420;28;20029;-74
2023/03/26 22:48:23;;;;;;;4.30;2.03;;;;;;;;;;5035170;28;20108;-74
2023/03/26 22:51:03;;;;;;;2.20;1.48;;;;;;;;;;5041342;28;20047;-74
2023/03/26 22:53:30;;;;;;;6.00;2.30;;;;;;;;;;5038614;28;20057;-74
2023/03/26 22:55:57;;;;;;;4.88;2.08;;;;;;;;;;5040962;28;20108;-74
2023/03/26 22:58:24;;;;;;;5.25;1.95;;;;;;;;;;5039075;28;20025;-74
2023/03/26 23:00:51;;;;;;;4.57;2.33;;;;;;;;;;5037306;28;20377;-74
2023/03/26 23:03:18;;;;;;;4.40;1.90;;;;;;;;;;5034843;28;20692;-74
2023/03/26 23:05:54;;;;;;;4.50;2.28;;;;;;;;;;5036272;28;20021;-74
2023/03/26 23:08:21;;;;;;;18.08;2.95;;;;;;;;;;5037247;28;20021;-73
2023/03/26 23:10:48;;;;;;;5.18;2.15;;;;;;;;;;5039645;28;20117;-73
2023/03/26 23:13:14;;;;;;;6.05;2.00;;;;;;;;;;5037319;28;20469;-74
2023/03/26 23:15:41;;;;;;;4.88;2.35;;;;;;;;;;5042110;28;20040;-74